createdAt,value
2017-10-20T00:01:49.030Z,12.84
2017-10-20T00:04:16.427Z,12.88
2017-10-20T00:06:43.819Z,13.00
2017-10-20T00:09:11.219Z,12.90
2017-10-20T00:11:38.615Z,12.99
2017-10-20T00:14:06.019Z,12.98
2017-10-20T00:16:33.502Z,12.98
2017-10-20T00:19:00.903Z,12.94
2017-10-20T00:21:28.304Z,12.96
2017-10-20T00:23:55.703Z,13.02
2017-10-20T00:26:23.102Z,13.00
2017-10-20T00:28:50.502Z,13.04
2017-10-20T00:31:17.908Z,13.05
2017-10-20T00:33:45.316Z,13.15
2017-10-20T00:36:12.711Z,13.13
2017-10-20T00:38:40.121Z,13.06
2017-10-20T00:41:07.570Z,13.19
2017-10-20T00:43:34.968Z,13.23
2017-10-20T00:46:02.486Z,13.19
2017-10-20T00:48:29.891Z,13.11
2017-10-20T00:50:57.303Z,13.00
2017-10-20T00:53:24.699Z,13.04
2017-10-20T00:55:52.211Z,12.93
2017-10-20T00:58:19.594Z,12.94
2017-10-20T01:00:47.003Z,12.75
2017-10-20T01:03:14.392Z,12.82
2017-10-20T01:05:41.799Z,12.76
2017-10-20T01:08:09.197Z,12.70
2017-10-20T01:10:36.594Z,12.88
2017-10-20T01:13:03.985Z,12.93
2017-10-20T01:15:31.514Z,12.93
2017-10-20T01:17:58.918Z,12.82
2017-10-20T01:20:26.309Z,12.77
2017-10-20T01:22:53.711Z,12.84
2017-10-20T01:25:21.227Z,12.85
2017-10-20T01:27:48.626Z,12.89
2017-10-20T01:44:30.169Z,12.63
2017-10-20T01:46:57.563Z,12.74
2017-10-20T01:49:24.986Z,12.78
2017-10-20T01:51:52.379Z,12.94
2017-10-20T01:54:19.783Z,13.02
2017-10-20T01:56:47.198Z,13.01
2017-10-20T01:59:14.595Z,13.07
2017-10-20T02:01:42.003Z,13.11
2017-10-20T02:04:09.398Z,13.19
2017-10-20T02:06:36.796Z,13.08
2017-10-20T02:09:04.198Z,13.09
2017-10-20T02:11:31.606Z,13.06
2017-10-20T02:13:59.019Z,13.12
2017-10-20T02:16:26.419Z,13.02
2017-10-20T02:18:53.818Z,13.01
2017-10-20T02:21:21.219Z,12.99
2017-10-20T02:23:48.614Z,13.11
2017-10-20T02:26:16.014Z,13.16
2017-10-20T02:28:43.406Z,13.26
2017-10-20T02:31:10.802Z,13.28
2017-10-20T02:33:38.207Z,13.24
2017-10-20T02:36:05.619Z,13.16
2017-10-20T02:38:33.019Z,13.24
2017-10-20T02:41:00.406Z,13.17
2017-10-20T02:43:27.814Z,13.24
2017-10-20T02:45:55.201Z,13.22
2017-10-20T02:48:22.607Z,13.30
2017-10-20T02:50:50.011Z,13.33
2017-10-20T02:53:17.402Z,13.41
2017-10-20T02:55:44.795Z,13.50
2017-10-20T02:58:12.226Z,13.53
2017-10-20T03:00:39.623Z,13.50
2017-10-20T03:03:07.018Z,13.53
2017-10-20T03:05:34.411Z,13.47
2017-10-20T03:08:01.815Z,13.39
2017-10-20T03:10:29.303Z,13.52
2017-10-20T03:12:56.707Z,13.50
2017-10-20T03:15:24.100Z,13.39
2017-10-20T03:17:51.503Z,13.35
2017-10-20T03:20:18.903Z,13.46
2017-10-20T03:22:46.358Z,13.59
2017-10-20T03:25:13.841Z,13.62
2017-10-20T03:27:41.294Z,13.68
2017-10-20T03:30:08.703Z,13.64
2017-10-20T03:32:36.126Z,13.60
2017-10-20T03:35:03.510Z,13.70
2017-10-20T03:37:30.906Z,13.77
2017-10-20T03:39:58.313Z,13.83
2017-10-20T03:42:25.710Z,13.89
2017-10-20T03:44:53.106Z,13.99
2017-10-20T03:47:20.501Z,14.05
2017-10-20T03:49:47.894Z,14.02
2017-10-20T03:52:15.288Z,14.01
2017-10-20T03:54:42.714Z,14.03
2017-10-20T03:57:10.107Z,14.02
2017-10-20T03:59:37.509Z,14.11
2017-10-20T04:02:04.916Z,14.10
2017-10-20T04:04:32.318Z,14.11
2017-10-20T04:06:59.716Z,14.17
2017-10-20T04:09:27.118Z,14.08
2017-10-20T04:11:54.522Z,13.78
2017-10-20T04:14:21.922Z,13.78
2017-10-20T04:16:49.315Z,13.64
2017-10-20T04:19:16.723Z,13.63
2017-10-20T04:21:44.119Z,13.74
2017-10-20T04:24:11.530Z,13.77
2017-10-20T04:26:38.928Z,13.87
2017-10-20T04:29:06.323Z,13.98
2017-10-20T04:31:33.742Z,13.87
2017-10-20T04:34:01.140Z,13.64
2017-10-20T04:36:28.551Z,13.66
2017-10-20T04:38:55.963Z,13.87
2017-10-20T04:41:23.355Z,13.89
2017-10-20T04:43:50.747Z,13.95
2017-10-20T04:46:18.163Z,14.07
2017-10-20T04:48:45.570Z,14.22
2017-10-20T04:51:12.972Z,14.20
2017-10-20T04:53:40.370Z,14.28
2017-10-20T04:56:07.796Z,14.34
2017-10-20T04:58:35.189Z,14.50
2017-10-20T05:01:02.594Z,14.56
2017-10-20T05:03:29.994Z,14.69
2017-10-20T05:05:57.395Z,14.76
2017-10-20T05:08:24.798Z,14.64
2017-10-20T05:10:52.216Z,14.71
2017-10-20T05:13:19.612Z,14.57
2017-10-20T05:15:47.039Z,14.55
2017-10-20T05:18:14.436Z,14.58
2017-10-20T05:20:41.851Z,14.46
2017-10-20T05:23:09.254Z,14.42
2017-10-20T05:25:36.686Z,14.43
2017-10-20T05:28:04.097Z,14.42
2017-10-20T05:30:31.499Z,14.35
2017-10-20T05:32:58.952Z,14.44
2017-10-20T05:35:26.330Z,14.33
2017-10-20T05:37:53.727Z,14.16
2017-10-20T05:40:21.129Z,13.93
2017-10-20T05:42:48.522Z,13.80
2017-10-20T05:45:15.920Z,13.64
2017-10-20T05:47:43.332Z,13.69
2017-10-20T05:50:10.726Z,13.81
2017-10-20T05:52:38.131Z,13.78
2017-10-20T05:55:05.534Z,13.80
2017-10-20T05:57:32.939Z,13.71
2017-10-20T06:00:00.335Z,13.61
2017-10-20T06:02:27.739Z,13.64
2017-10-20T06:04:55.126Z,13.74
2017-10-20T06:07:22.542Z,13.69
2017-10-20T06:09:50.018Z,13.72
2017-10-20T06:12:17.406Z,13.75
2017-10-20T06:14:44.794Z,13.85
2017-10-20T06:17:12.207Z,13.98
2017-10-20T06:19:39.598Z,14.17
2017-10-20T06:22:07.095Z,14.31
2017-10-20T06:24:34.491Z,14.43
2017-10-20T06:27:01.893Z,14.54
2017-10-20T06:29:29.286Z,14.59
2017-10-20T06:31:56.686Z,14.63
2017-10-20T06:34:24.076Z,14.67
2017-10-20T06:36:51.471Z,14.62
2017-10-20T06:39:18.886Z,14.61
2017-10-20T06:41:46.373Z,14.53
2017-10-20T06:44:13.757Z,14.51
2017-10-20T06:46:41.144Z,14.40
2017-10-20T06:49:08.560Z,14.57
2017-10-20T06:51:36.063Z,14.47
2017-10-20T06:54:03.469Z,14.31
2017-10-20T06:56:30.855Z,14.29
2017-10-20T06:58:58.259Z,14.08
2017-10-20T07:01:25.658Z,14.08
2017-10-20T07:03:53.058Z,14.10
2017-10-20T07:06:20.451Z,14.03
2017-10-20T07:08:47.850Z,13.96
2017-10-20T07:11:15.241Z,14.15
2017-10-20T07:13:42.643Z,14.27
2017-10-20T07:16:10.115Z,14.36
2017-10-20T07:21:47.202Z,14.67
2017-10-20T07:24:14.647Z,14.79
2017-10-20T07:26:42.043Z,15.03
2017-10-20T07:29:09.438Z,15.15
2017-10-20T07:31:36.838Z,15.28
2017-10-20T07:34:04.251Z,15.53
2017-10-20T07:36:31.647Z,15.54
2017-10-20T07:38:59.051Z,15.55
2017-10-20T07:41:26.450Z,15.57
2017-10-20T07:43:53.854Z,15.66
2017-10-20T07:46:21.256Z,15.61
2017-10-20T07:48:48.668Z,15.73
2017-10-20T07:51:16.129Z,15.82
2017-10-20T07:53:43.580Z,16.09
2017-10-20T07:56:10.970Z,16.33
2017-10-20T07:58:38.403Z,16.46
2017-10-20T08:01:05.806Z,16.63
2017-10-20T08:03:33.195Z,16.51
2017-10-20T08:06:00.595Z,16.70
2017-10-20T08:08:28.000Z,16.75
2017-10-20T08:10:55.395Z,16.82
2017-10-20T08:13:22.794Z,16.84
2017-10-20T08:15:50.240Z,16.56
2017-10-20T08:18:17.649Z,16.42
2017-10-20T08:20:45.042Z,16.45
2017-10-20T08:23:12.515Z,16.47
2017-10-20T08:25:39.910Z,16.36
2017-10-20T08:28:07.307Z,16.26
2017-10-20T08:30:34.735Z,16.31
2017-10-20T08:33:02.283Z,16.18
2017-10-20T08:35:29.690Z,16.22
2017-10-20T08:37:57.084Z,16.32
2017-10-20T08:40:24.479Z,16.17
2017-10-20T08:42:51.885Z,16.19
2017-10-20T08:45:19.286Z,16.12
2017-10-20T08:47:46.773Z,15.96
2017-10-20T08:50:14.181Z,15.88
2017-10-20T08:52:41.579Z,15.89
2017-10-20T08:55:09.019Z,15.69
2017-10-20T08:57:36.502Z,15.88
2017-10-20T09:00:04.009Z,15.84
2017-10-20T09:02:31.402Z,15.85
2017-10-20T09:04:58.798Z,15.87
2017-10-20T09:07:26.201Z,15.83
2017-10-20T09:09:53.594Z,15.74
2017-10-20T09:12:21.012Z,15.75
2017-10-20T09:14:48.509Z,15.80
2017-10-20T09:17:15.964Z,15.93
2017-10-20T09:19:43.356Z,15.85
2017-10-20T09:22:10.763Z,15.94
2017-10-20T09:24:38.337Z,15.96
2017-10-20T09:27:06.018Z,16.08
2017-10-20T09:29:33.443Z,16.17
2017-10-20T09:32:00.846Z,16.17
2017-10-20T09:34:28.235Z,16.37
2017-10-20T09:36:55.635Z,16.53
2017-10-20T09:39:23.383Z,16.47
2017-10-20T09:41:50.789Z,16.38
2017-10-20T09:44:18.190Z,16.57
2017-10-20T09:46:45.632Z,16.66
2017-10-20T09:49:13.107Z,16.75
2017-10-20T09:51:40.504Z,16.86
2017-10-20T09:54:07.927Z,16.73
2017-10-20T09:56:35.482Z,16.64
2017-10-20T09:59:02.883Z,16.86
2017-10-20T10:01:30.299Z,16.66
2017-10-20T10:03:57.839Z,16.55
2017-10-20T10:06:25.253Z,16.51
2017-10-20T10:08:52.649Z,16.59
2017-10-20T10:11:20.342Z,16.47
2017-10-20T10:13:47.860Z,16.55
2017-10-20T10:16:15.338Z,16.49
2017-10-20T10:18:42.742Z,16.46
2017-10-20T10:21:10.152Z,16.44
2017-10-20T10:23:37.546Z,16.26
2017-10-20T10:26:04.951Z,16.15
2017-10-20T10:28:32.630Z,15.95
2017-10-20T10:31:00.064Z,15.91
2017-10-20T10:33:27.463Z,15.71
2017-10-20T10:35:54.863Z,15.85
2017-10-20T10:38:22.258Z,15.83
2017-10-20T10:40:49.647Z,15.76
2017-10-20T10:43:17.050Z,15.57
2017-10-20T10:45:44.446Z,15.46
2017-10-20T10:48:11.848Z,15.32
2017-10-20T10:50:39.242Z,15.26
2017-10-20T10:53:06.662Z,15.15
2017-10-20T10:55:34.058Z,15.10
2017-10-20T10:58:01.520Z,14.99
2017-10-20T11:00:28.918Z,14.93
2017-10-20T11:02:56.315Z,14.96
2017-10-20T11:05:35.489Z,15.03
2017-10-20T11:11:14.786Z,14.90
2017-10-20T11:13:42.182Z,14.90
2017-10-20T11:16:09.586Z,14.85
2017-10-20T11:18:36.975Z,14.89
2017-10-20T11:21:04.380Z,14.83
2017-10-20T11:23:31.780Z,14.93
2017-10-20T11:25:59.175Z,14.94
2017-10-20T11:28:26.575Z,15.08
2017-10-20T11:30:53.970Z,15.17
2017-10-20T11:33:21.366Z,15.34
2017-10-20T11:35:48.758Z,15.47
2017-10-20T11:38:16.163Z,15.56
2017-10-20T11:40:43.663Z,15.80
2017-10-20T11:43:11.064Z,15.94
2017-10-20T11:45:38.458Z,16.14
2017-10-20T11:48:05.861Z,16.27
2017-10-20T11:50:33.255Z,16.09
2017-10-20T11:53:00.656Z,16.13
2017-10-20T11:55:28.050Z,16.30
2017-10-20T11:57:55.476Z,16.27
2017-10-20T12:00:22.862Z,16.30
2017-10-20T12:02:50.262Z,16.37
2017-10-20T12:05:17.674Z,16.44
2017-10-20T12:07:45.170Z,16.57
2017-10-20T12:10:12.574Z,16.58
2017-10-20T12:12:39.964Z,16.41
2017-10-20T12:15:07.375Z,16.33
2017-10-20T12:17:34.766Z,16.49
2017-10-20T12:20:02.171Z,16.29
2017-10-20T12:22:29.562Z,16.19
2017-10-20T12:24:56.964Z,16.36
2017-10-20T12:27:24.362Z,16.44
2017-10-20T12:29:51.783Z,16.39
2017-10-20T12:32:19.167Z,16.44
2017-10-20T12:34:46.571Z,16.47
2017-10-20T12:37:13.963Z,16.31
2017-10-20T12:39:41.363Z,16.26
2017-10-20T12:42:08.759Z,16.27
2017-10-20T12:44:36.167Z,16.21
2017-10-20T12:47:03.572Z,16.23
2017-10-20T12:49:30.963Z,16.35
2017-10-20T12:51:58.358Z,16.49
2017-10-20T12:54:25.759Z,16.52
2017-10-20T12:56:53.158Z,16.50
2017-10-20T12:59:20.557Z,16.48
2017-10-20T13:01:47.959Z,16.44
2017-10-20T13:04:15.350Z,16.40
2017-10-20T13:06:42.750Z,16.54
2017-10-20T13:09:10.372Z,16.39
2017-10-20T13:11:37.829Z,16.10
2017-10-20T13:14:05.214Z,16.03
2017-10-20T13:16:32.617Z,15.87
2017-10-20T13:19:00.015Z,15.90
2017-10-20T13:21:27.415Z,16.09
2017-10-20T13:23:54.810Z,16.18
2017-10-20T13:26:22.210Z,16.03
2017-10-20T13:28:49.606Z,16.09
2017-10-20T13:31:17.011Z,16.01
2017-10-20T13:33:44.404Z,15.73
2017-10-20T13:36:11.798Z,15.73
2017-10-20T13:38:39.211Z,15.73
2017-10-20T13:41:06.595Z,15.71
2017-10-20T13:43:33.995Z,15.89
2017-10-20T13:46:01.391Z,16.08
2017-10-20T13:48:28.778Z,15.99
2017-10-20T13:50:56.183Z,16.01
2017-10-20T13:53:23.574Z,16.10
2017-10-20T13:55:50.975Z,16.27
2017-10-20T13:58:18.367Z,16.49
2017-10-20T14:00:45.772Z,16.65
2017-10-20T14:03:13.156Z,16.77
2017-10-20T14:05:40.562Z,16.68
2017-10-20T14:08:07.951Z,16.66
2017-10-20T14:10:35.351Z,16.81
2017-10-20T14:13:02.755Z,16.71
2017-10-20T14:15:30.158Z,16.79
2017-10-20T14:17:57.571Z,16.99
2017-10-20T14:20:25.079Z,17.30
2017-10-20T14:22:52.471Z,17.37
2017-10-20T14:25:19.898Z,17.42
2017-10-20T14:27:47.295Z,17.76
2017-10-20T14:30:14.687Z,17.76
2017-10-20T14:32:42.164Z,17.83
2017-10-20T14:35:09.551Z,17.93
2017-10-20T14:37:36.951Z,17.96
2017-10-20T14:40:04.336Z,17.81
2017-10-20T14:42:31.730Z,17.82
2017-10-20T14:44:59.147Z,17.68
2017-10-20T14:47:26.592Z,17.67
2017-10-20T14:49:53.990Z,17.65
2017-10-20T14:52:21.378Z,17.68
2017-10-20T14:54:48.766Z,17.60
2017-10-20T14:57:16.166Z,17.43
2017-10-20T14:59:43.559Z,17.29
2017-10-20T15:02:10.950Z,17.58
2017-10-20T15:04:38.347Z,17.57
2017-10-20T15:07:05.744Z,17.62
2017-10-20T15:09:33.136Z,17.56
2017-10-20T15:12:00.524Z,17.52
2017-10-20T15:14:28.011Z,17.45
2017-10-20T15:16:55.414Z,17.42
2017-10-20T15:19:22.823Z,17.55
2017-10-20T15:21:50.212Z,17.34
2017-10-20T15:24:17.606Z,17.51
2017-10-20T15:26:44.991Z,17.52
2017-10-20T15:29:12.379Z,17.54
2017-10-20T15:31:39.768Z,17.27
2017-10-20T15:34:07.155Z,17.21
2017-10-20T15:36:34.542Z,17.20
2017-10-20T15:39:01.970Z,17.10
2017-10-20T15:41:29.354Z,17.13
2017-10-20T15:43:56.758Z,16.95
2017-10-20T15:46:24.145Z,16.71
2017-10-20T15:48:51.530Z,16.73
2017-10-20T15:51:18.919Z,16.82
2017-10-20T15:53:46.307Z,16.56
2017-10-20T15:56:13.691Z,16.53
2017-10-20T15:58:41.088Z,16.43
2017-10-20T16:01:08.580Z,16.55
2017-10-20T16:03:36.030Z,16.39
2017-10-20T16:06:03.418Z,16.09
2017-10-20T16:08:30.811Z,15.92
2017-10-20T16:10:58.195Z,15.93
2017-10-20T16:13:25.598Z,15.91
2017-10-20T16:15:52.990Z,15.77
2017-10-20T16:18:20.377Z,15.78
2017-10-20T16:20:47.766Z,15.65
2017-10-20T16:23:15.175Z,15.65
2017-10-20T16:25:42.555Z,15.57
2017-10-20T16:28:09.949Z,15.47
2017-10-20T16:30:37.353Z,15.55
2017-10-20T16:33:04.966Z,15.65
2017-10-20T16:35:32.466Z,15.64
2017-10-20T16:37:59.846Z,15.51
2017-10-20T16:40:27.243Z,15.53
2017-10-20T16:42:54.636Z,15.44
2017-10-20T16:45:22.055Z,15.30
2017-10-20T16:47:49.439Z,15.43
2017-10-20T16:50:16.835Z,15.33
2017-10-20T16:52:44.221Z,15.29
2017-10-20T16:55:11.617Z,15.17
2017-10-20T16:57:38.998Z,15.36
2017-10-20T17:00:06.382Z,15.28
2017-10-20T17:02:33.780Z,15.41
2017-10-20T17:05:01.163Z,15.30
2017-10-20T17:07:28.551Z,15.50
2017-10-20T17:09:55.938Z,15.59
2017-10-20T17:12:23.327Z,15.63
2017-10-20T17:14:50.711Z,15.50
2017-10-20T17:17:18.104Z,15.56
2017-10-20T17:19:45.488Z,15.54
2017-10-20T17:22:12.888Z,15.30
2017-10-20T17:24:40.267Z,15.41
2017-10-20T17:27:13.207Z,15.32
2017-10-20T17:29:40.715Z,15.44
2017-10-20T17:32:08.106Z,15.39
2017-10-20T17:34:35.490Z,15.35
2017-10-20T17:37:02.899Z,15.13
2017-10-20T17:39:30.286Z,15.38
2017-10-20T17:41:57.823Z,15.46
2017-10-20T17:44:25.211Z,15.23
2017-10-20T17:46:52.682Z,15.22
2017-10-20T17:49:20.159Z,15.15
2017-10-20T17:51:47.547Z,15.07
2017-10-20T17:54:14.931Z,15.07
2017-10-20T17:56:42.331Z,14.97
2017-10-20T17:59:09.723Z,14.70
2017-10-20T18:01:37.125Z,14.44
2017-10-20T18:04:04.509Z,14.43
2017-10-20T18:06:31.907Z,14.45
2017-10-20T18:08:59.293Z,14.41
2017-10-20T18:11:26.682Z,14.41
2017-10-20T18:13:54.067Z,14.29
2017-10-20T18:16:21.563Z,14.21
2017-10-20T18:18:48.954Z,14.20
2017-10-20T18:21:16.372Z,14.07
2017-10-20T18:23:43.758Z,14.07
2017-10-20T18:26:11.173Z,14.02
2017-10-20T18:28:38.557Z,13.92
2017-10-20T18:31:06.003Z,14.00
2017-10-20T18:33:33.467Z,13.95
2017-10-20T18:36:00.873Z,13.91
2017-10-20T18:38:28.260Z,13.94
2017-10-20T18:40:55.643Z,13.89
2017-10-20T18:43:23.034Z,14.06
2017-10-20T18:45:50.419Z,14.12
2017-10-20T18:48:17.810Z,14.14
2017-10-20T18:50:45.251Z,14.22
2017-10-20T18:53:12.651Z,14.19
2017-10-20T18:55:40.046Z,14.03
2017-10-20T18:58:07.515Z,14.23
2017-10-20T19:00:34.905Z,14.20
2017-10-20T19:03:02.299Z,14.24
2017-10-20T19:05:29.693Z,14.39
2017-10-20T19:07:57.080Z,14.20
2017-10-20T19:10:24.462Z,14.15
2017-10-20T19:12:51.855Z,14.22
2017-10-20T19:15:19.307Z,14.24
2017-10-20T19:17:46.723Z,14.24
2017-10-20T19:20:14.107Z,14.13
2017-10-20T19:22:41.498Z,14.14
2017-10-20T19:25:08.887Z,14.06
2017-10-20T19:27:36.279Z,14.12
2017-10-20T19:30:03.975Z,14.05
2017-10-20T19:32:31.382Z,14.00
2017-10-20T19:34:58.754Z,14.15
2017-10-20T19:37:26.178Z,14.29
2017-10-20T19:39:53.553Z,14.14
2017-10-20T19:42:20.942Z,14.01
2017-10-20T19:44:48.334Z,14.04
2017-10-20T19:47:15.727Z,14.11
2017-10-20T19:49:43.122Z,14.01
2017-10-20T19:55:01.811Z,13.76
2017-10-20T19:57:29.190Z,13.68
2017-10-20T19:59:56.577Z,13.64
2017-10-20T20:02:23.970Z,13.81
2017-10-20T20:04:51.363Z,13.73
2017-10-20T20:07:18.759Z,13.74
2017-10-20T20:09:46.168Z,13.87
2017-10-20T20:12:13.555Z,13.96
2017-10-20T20:14:41.158Z,13.86
2017-10-20T20:17:08.559Z,13.81
2017-10-20T20:19:35.947Z,13.95
2017-10-20T20:22:03.347Z,14.03
2017-10-20T20:24:30.744Z,13.88
2017-10-20T20:26:58.143Z,14.00
2017-10-20T20:29:25.544Z,13.90
2017-10-20T20:31:57.331Z,14.02
2017-10-20T20:34:24.725Z,13.94
2017-10-20T20:36:52.115Z,13.98
2017-10-20T20:39:19.527Z,13.84
2017-10-20T20:41:46.959Z,13.82
2017-10-20T20:44:14.360Z,13.60
2017-10-20T20:46:41.750Z,13.65
2017-10-20T20:49:09.168Z,13.53
2017-10-20T20:51:36.552Z,13.53
2017-10-20T20:54:03.939Z,13.47
2017-10-20T20:56:31.342Z,13.44
2017-10-20T20:58:58.746Z,13.39
2017-10-20T21:01:26.141Z,13.34
2017-10-20T21:03:53.535Z,13.32
2017-10-20T21:06:21.019Z,13.30
2017-10-20T21:08:48.471Z,13.24
2017-10-20T21:11:15.863Z,13.49
2017-10-20T21:13:43.257Z,13.42
2017-10-20T21:16:10.653Z,13.32
2017-10-20T21:18:38.033Z,13.46
2017-10-20T21:21:05.442Z,13.41
2017-10-20T21:23:32.837Z,13.46
2017-10-20T21:26:00.274Z,13.38
2017-10-20T21:28:27.666Z,13.47
2017-10-20T21:30:55.057Z,13.41
2017-10-20T21:33:22.447Z,13.44
2017-10-20T21:35:49.842Z,13.42
2017-10-20T21:38:17.238Z,13.44
2017-10-20T21:40:44.635Z,13.54
2017-10-20T21:43:12.038Z,13.46
2017-10-20T21:45:39.430Z,13.70
2017-10-20T21:48:06.823Z,13.55
2017-10-20T21:50:34.311Z,13.49
2017-10-20T21:53:01.703Z,13.43
2017-10-20T21:55:29.090Z,13.67
2017-10-20T21:57:56.499Z,13.53
2017-10-20T22:00:23.874Z,13.46
2017-10-20T22:02:51.270Z,13.61
2017-10-20T22:05:18.663Z,13.66
2017-10-20T22:07:46.067Z,13.61
2017-10-20T22:10:13.460Z,13.58
2017-10-20T22:12:40.879Z,13.42
2017-10-20T22:15:08.271Z,13.47
2017-10-20T22:17:35.658Z,13.55
2017-10-20T22:20:03.065Z,13.57
2017-10-20T22:22:30.450Z,13.55
2017-10-20T22:24:57.860Z,13.70
2017-10-20T22:27:25.342Z,13.85
2017-10-20T22:29:52.738Z,13.88
2017-10-20T22:32:20.132Z,13.74
2017-10-20T22:34:47.615Z,13.70
2017-10-20T22:37:14.999Z,13.52
2017-10-20T22:39:42.390Z,13.57
2017-10-20T22:42:09.788Z,13.65
2017-10-20T22:44:37.183Z,13.67
2017-10-20T22:47:04.571Z,13.48
2017-10-20T22:49:32.018Z,13.43
2017-10-20T22:51:59.415Z,13.50
2017-10-20T22:54:26.806Z,13.45
2017-10-20T22:56:54.199Z,13.35
2017-10-20T22:59:21.594Z,13.50
2017-10-20T23:01:48.995Z,13.27
2017-10-20T23:04:16.489Z,13.36
2017-10-20T23:06:43.875Z,13.32
2017-10-20T23:09:11.275Z,13.33
2017-10-20T23:11:38.666Z,13.16
2017-10-20T23:14:06.050Z,13.39
2017-10-20T23:16:33.452Z,13.35
2017-10-20T23:19:00.834Z,13.24
2017-10-20T23:21:28.237Z,13.33
2017-10-20T23:23:55.622Z,13.15
2017-10-20T23:26:23.010Z,13.28
2017-10-20T23:28:50.402Z,13.37
2017-10-20T23:31:17.804Z,13.40
2017-10-20T23:33:45.194Z,13.46
2017-10-20T23:36:12.598Z,13.35
2017-10-20T23:38:39.990Z,13.39
2017-10-20T23:41:07.391Z,13.47
2017-10-20T23:43:34.780Z,13.37
2017-10-20T23:46:02.171Z,13.30
2017-10-20T23:48:29.564Z,13.13
2017-10-20T23:50:56.963Z,13.10
2017-10-20T23:53:24.366Z,13.28
2017-10-20T23:55:51.771Z,13.44
2017-10-20T23:58:19.159Z,13.46
